sensor_id;sensor_type;location;lat;lon;timestamp;pressure;altitude;pressure_sealevel;temperature;humidity
15007;BME280;7599;50.748;13.142;2023-04-01T00:02:11;93993.34;;;11.78;66.26
15007;BME280;7599;50.748;13.142;2023-04-01T00:05:13;93989.94;;;11.77;66.12
15007;BME280;7599;50.748;13.142;2023-04-01T00:08:17;93989.16;;;11.77;66.12
15007;BME280;7599;50.748;13.142;2023-04-01T00:11:21;93987.31;;;11.77;65.90
15007;BME280;7599;50.748;13.142;2023-04-01T00:14:24;93990.72;;;11.78;66.34
15007;BME280;7599;50.748;13.142;2023-04-01T00:17:26;93978.59;;;11.77;65.95
15007;BME280;7599;50.748;13.142;2023-04-01T00:20:29;93985.72;;;11.76;65.93
15007;BME280;7599;50.748;13.142;2023-04-01T00:23:32;93977.56;;;11.78;65.86
15007;BME280;7599;50.748;13.142;2023-04-01T00:26:36;93994.41;;;11.77;65.98
15007;BME280;7599;50.748;13.142;2023-04-01T00:29:41;93989.16;;;11.77;66.25
15007;BME280;7599;50.748;13.142;2023-04-01T00:32:44;93984.94;;;11.76;66.04
15007;BME280;7599;50.748;13.142;2023-04-01T00:35:47;93988.38;;;11.76;66.32
15007;BME280;7599;50.748;13.142;2023-04-01T00:38:49;93984.94;;;11.76;66.46
15007;BME280;7599;50.748;13.142;2023-04-01T00:41:54;93992.06;;;11.75;66.27
15007;BME280;7599;50.748;13.142;2023-04-01T00:44:58;93981.50;;;11.75;66.48
15007;BME280;7599;50.748;13.142;2023-04-01T00:48:04;93988.59;;;11.75;66.14
15007;BME280;7599;50.748;13.142;2023-04-01T00:51:10;93978.06;;;11.75;66.42
15007;BME280;7599;50.748;13.142;2023-04-01T00:54:15;93966.75;;;11.74;66.30
15007;BME280;7599;50.748;13.142;2023-04-01T00:57:23;93970.16;;;11.75;66.49
15007;BME280;7599;50.748;13.142;2023-04-01T01:00:27;93972.78;;;11.75;66.27
15007;BME280;7599;50.748;13.142;2023-04-01T01:03:30;93979.91;;;11.74;66.24
15007;BME280;7599;50.748;13.142;2023-04-01T01:06:46;93972.78;;;11.75;66.07
15007;BME280;7599;50.748;13.142;2023-04-01T01:09:59;93975.72;;;11.73;66.48
15007;BME280;7599;50.748;13.142;2023-04-01T01:13:06;93973.88;;;11.74;66.49
15007;BME280;7599;50.748;13.142;2023-04-01T01:16:15;93970.75;;;11.72;66.31
15007;BME280;7599;50.748;13.142;2023-04-01T01:19:40;93981.78;;;11.74;66.47
15007;BME280;7599;50.748;13.142;2023-04-01T01:23:14;93978.06;;;11.75;66.27
15007;BME280;7599;50.748;13.142;2023-04-01T01:26:39;93976.53;;;11.74;66.47
15007;BME280;7599;50.748;13.142;2023-04-01T01:30:09;93968.63;;;11.74;66.14
15007;BME280;7599;50.748;13.142;2023-04-01T01:33:34;93964.91;;;11.75;66.17
15007;BME280;7599;50.748;13.142;2023-04-01T01:36:42;93968.34;;;11.75;66.06
15007;BME280;7599;50.748;13.142;2023-04-01T01:39:50;93966.00;;;11.74;66.18
15007;BME280;7599;50.748;13.142;2023-04-01T01:42:56;93965.72;;;11.75;66.14
15007;BME280;7599;50.748;13.142;2023-04-01T01:46:04;93962.25;;;11.75;66.47
15007;BME280;7599;50.748;13.142;2023-04-01T01:49:09;93964.09;;;11.74;66.26
15007;BME280;7599;50.748;13.142;2023-04-01T01:52:16;93967.53;;;11.75;66.04
15007;BME280;7599;50.748;13.142;2023-04-01T01:55:28;93964.09;;;11.74;66.24
15007;BME280;7599;50.748;13.142;2023-04-01T01:58:35;93971.25;;;11.74;65.97
15007;BME280;7599;50.748;13.142;2023-04-01T02:01:44;93958.84;;;11.74;66.09
15007;BME280;7599;50.748;13.142;2023-04-01T02:04:49;93960.72;;;11.74;66.03
15007;BME280;7599;50.748;13.142;2023-04-01T02:07:59;93963.34;;;11.74;66.12
15007;BME280;7599;50.748;13.142;2023-04-01T02:11:05;93965.72;;;11.75;66.11
15007;BME280;7599;50.748;13.142;2023-04-01T02:14:11;93964.09;;;11.74;66.19
15007;BME280;7599;50.748;13.142;2023-04-01T02:17:18;93963.34;;;11.74;66.48
15007;BME280;7599;50.748;13.142;2023-04-01T02:20:22;93966.00;;;11.74;66.26
15007;BME280;7599;50.748;13.142;2023-04-01T02:23:28;93973.88;;;11.74;66.34
15007;BME280;7599;50.748;13.142;2023-04-01T02:26:31;93972.00;;;11.74;66.25
15007;BME280;7599;50.748;13.142;2023-04-01T02:29:34;93968.63;;;11.74;66.38
15007;BME280;7599;50.748;13.142;2023-04-01T02:32:38;93967.53;;;11.75;66.26
15007;BME280;7599;50.748;13.142;2023-04-01T02:35:43;93964.09;;;11.74;66.42
15007;BME280;7599;50.748;13.142;2023-04-01T02:38:49;93973.88;;;11.74;66.07
15007;BME280;7599;50.748;13.142;2023-04-01T02:41:52;93970.16;;;11.75;66.00
15007;BME280;7599;50.748;13.142;2023-04-01T02:44:54;93978.06;;;11.75;66.22
15007;BME280;7599;50.748;13.142;2023-04-01T02:47:58;93974.41;;;11.76;66.21
15007;BME280;7599;50.748;13.142;2023-04-01T02:51:01;93971.53;;;11.72;66.32
15007;BME280;7599;50.748;13.142;2023-04-01T02:54:05;93978.38;;;11.73;66.21
15007;BME280;7599;50.748;13.142;2023-04-01T02:57:07;93966.00;;;11.74;66.28
15007;BME280;7599;50.748;13.142;2023-04-01T03:00:11;93975.72;;;11.73;66.20
15007;BME280;7599;50.748;13.142;2023-04-01T03:03:14;93971.25;;;11.74;66.31
15007;BME280;7599;50.748;13.142;2023-04-01T03:06:17;93973.88;;;11.74;66.55
15007;BME280;7599;50.748;13.142;2023-04-01T03:09:22;93966.75;;;11.74;66.16
15007;BME280;7599;50.748;13.142;2023-04-01T03:12:25;93976.53;;;11.74;66.32
15007;BME280;7599;50.748;13.142;2023-04-01T03:15:27;93966.75;;;11.74;66.41
15007;BME280;7599;50.748;13.142;2023-04-01T03:18:30;93972.00;;;11.74;66.38
15007;BME280;7599;50.748;13.142;2023-04-01T03:21:33;93972.78;;;11.75;66.38
15007;BME280;7599;50.748;13.142;2023-04-01T03:24:37;93967.53;;;11.75;66.24
15007;BME280;7599;50.748;13.142;2023-04-01T03:27:39;93965.72;;;11.75;66.40
15007;BME280;7599;50.748;13.142;2023-04-01T03:30:42;93975.97;;;11.77;66.05
15007;BME280;7599;50.748;13.142;2023-04-01T03:33:44;93977.03;;;11.76;65.99
15007;BME280;7599;50.748;13.142;2023-04-01T03:36:47;93974.41;;;11.76;66.50
15007;BME280;7599;50.748;13.142;2023-04-01T03:39:51;93982.31;;;11.76;66.45
15007;BME280;7599;50.748;13.142;2023-04-01T03:42:54;93979.66;;;11.76;65.98
15007;BME280;7599;50.748;13.142;2023-04-01T03:45:57;93984.16;;;11.75;66.49
15007;BME280;7599;50.748;13.142;2023-04-01T03:49:00;93996.50;;;11.75;66.16
15007;BME280;7599;50.748;13.142;2023-04-01T03:52:03;93994.69;;;11.75;66.26
15007;BME280;7599;50.748;13.142;2023-04-01T03:55:07;93987.56;;;11.76;66.46
15007;BME280;7599;50.748;13.142;2023-04-01T03:58:10;93989.41;;;11.75;66.25
15007;BME280;7599;50.748;13.142;2023-04-01T04:01:14;93998.13;;;11.76;66.39
15007;BME280;7599;50.748;13.142;2023-04-01T04:04:17;94004.16;;;11.76;66.17
15007;BME280;7599;50.748;13.142;2023-04-01T04:07:19;94000.75;;;11.76;66.31
15007;BME280;7599;50.748;13.142;2023-04-01T04:10:23;94004.94;;;11.77;66.10
15007;BME280;7599;50.748;13.142;2023-04-01T04:13:26;93999.69;;;11.77;66.28
15007;BME280;7599;50.748;13.142;2023-04-01T04:16:29;93993.63;;;11.76;66.20
15007;BME280;7599;50.748;13.142;2023-04-01T04:19:34;94006.00;;;11.76;66.16
15007;BME280;7599;50.748;13.142;2023-04-01T04:22:37;94008.66;;;11.76;66.19
15007;BME280;7599;50.748;13.142;2023-04-01T04:25:40;94011.00;;;11.77;66.33
15007;BME280;7599;50.748;13.142;2023-04-01T04:28:43;94015.50;;;11.77;66.32
15007;BME280;7599;50.748;13.142;2023-04-01T04:31:46;94018.13;;;11.77;66.40
15007;BME280;7599;50.748;13.142;2023-04-01T04:34:48;94015.75;;;11.75;66.47
15007;BME280;7599;50.748;13.142;2023-04-01T04:37:51;94019.19;;;11.76;66.41
15007;BME280;7599;50.748;13.142;2023-04-01T04:40:55;94015.50;;;11.77;66.33
15007;BME280;7599;50.748;13.142;2023-04-01T04:43:58;94027.09;;;11.76;66.23
15007;BME280;7599;50.748;13.142;2023-04-01T04:47:00;94027.09;;;11.76;66.38
15007;BME280;7599;50.748;13.142;2023-04-01T04:50:05;94021.03;;;11.75;65.95
15007;BME280;7599;50.748;13.142;2023-04-01T04:53:09;94021.81;;;11.76;66.51
15007;BME280;7599;50.748;13.142;2023-04-01T04:56:13;94025.47;;;11.75;66.74
15007;BME280;7599;50.748;13.142;2023-04-01T04:59:16;94026.31;;;11.75;66.58
15007;BME280;7599;50.748;13.142;2023-04-01T05:02:18;94027.09;;;11.76;66.60
15007;BME280;7599;50.748;13.142;2023-04-01T05:05:21;94027.09;;;11.76;66.55
15007;BME280;7599;50.748;13.142;2023-04-01T05:08:24;94027.88;;;11.76;66.23
15007;BME280;7599;50.748;13.142;2023-04-01T05:11:28;94027.09;;;11.76;66.62
15007;BME280;7599;50.748;13.142;2023-04-01T05:14:31;94032.34;;;11.76;66.24
15007;BME280;7599;50.748;13.142;2023-04-01T05:17:33;94032.59;;;11.74;66.35
15007;BME280;7599;50.748;13.142;2023-04-01T05:20:36;94031.56;;;11.75;66.64
15007;BME280;7599;50.748;13.142;2023-04-01T05:23:39;94031.56;;;11.75;66.47
15007;BME280;7599;50.748;13.142;2023-04-01T05:26:43;94036.03;;;11.75;66.39
15007;BME280;7599;50.748;13.142;2023-04-01T05:29:46;94033.38;;;11.75;66.18
15007;BME280;7599;50.748;13.142;2023-04-01T05:32:49;94042.91;;;11.76;66.36
15007;BME280;7599;50.748;13.142;2023-04-01T05:35:52;94045.53;;;11.76;66.32
15007;BME280;7599;50.748;13.142;2023-04-01T05:38:55;94034.19;;;11.75;66.61
15007;BME280;7599;50.748;13.142;2023-04-01T05:41:59;94034.19;;;11.75;66.04
15007;BME280;7599;50.748;13.142;2023-04-01T05:45:05;94046.56;;;11.75;66.49
15007;BME280;7599;50.748;13.142;2023-04-01T05:48:08;94037.63;;;11.76;66.39
15007;BME280;7599;50.748;13.142;2023-04-01T05:51:14;94038.66;;;11.75;66.40
15007;BME280;7599;50.748;13.142;2023-04-01T05:54:17;94037.63;;;11.76;66.61
15007;BME280;7599;50.748;13.142;2023-04-01T05:57:21;94036.03;;;11.75;66.21
15007;BME280;7599;50.748;13.142;2023-04-01T06:00:24;94048.16;;;11.76;66.24
15007;BME280;7599;50.748;13.142;2023-04-01T06:03:27;94039.47;;;11.75;66.44
15007;BME280;7599;50.748;13.142;2023-04-01T06:06:31;94051.59;;;11.76;66.49
15007;BME280;7599;50.748;13.142;2023-04-01T06:09:34;94054.22;;;11.76;66.22
15007;BME280;7599;50.748;13.142;2023-04-01T06:12:45;94048.69;;;11.78;66.36
15007;BME280;7599;50.748;13.142;2023-04-01T06:15:53;94056.06;;;11.76;66.37
15007;BME280;7599;50.748;13.142;2023-04-01T06:19:09;94054.22;;;11.76;66.38
15007;BME280;7599;50.748;13.142;2023-04-01T06:22:30;94064.72;;;11.81;66.44
15007;BME280;7599;50.748;13.142;2023-04-01T06:25:40;94057.09;;;11.80;66.74
15007;BME280;7599;50.748;13.142;2023-04-01T06:32:51;94068.69;;;11.79;66.43
15007;BME280;7599;50.748;13.142;2023-04-01T06:36:08;94058.16;;;11.79;66.29
15007;BME280;7599;50.748;13.142;2023-04-01T06:39:32;94068.69;;;11.79;66.31
15007;BME280;7599;50.748;13.142;2023-04-01T06:42:57;94067.91;;;11.78;66.44
15007;BME280;7599;50.748;13.142;2023-04-01T06:46:13;94064.50;;;11.78;66.24
15007;BME280;7599;50.748;13.142;2023-04-01T06:49:37;94067.13;;;11.78;66.57
15007;BME280;7599;50.748;13.142;2023-04-01T06:52:50;94070.53;;;11.78;66.48
15007;BME280;7599;50.748;13.142;2023-04-01T06:55:57;94072.38;;;11.78;66.66
15007;BME280;7599;50.748;13.142;2023-04-01T06:59:04;94079.22;;;11.79;66.63
15007;BME280;7599;50.748;13.142;2023-04-01T07:02:19;94073.97;;;11.79;66.21
15007;BME280;7599;50.748;13.142;2023-04-01T07:05:26;94072.38;;;11.78;66.29
15007;BME280;7599;50.748;13.142;2023-04-01T07:08:35;94071.34;;;11.79;66.53
15007;BME280;7599;50.748;13.142;2023-04-01T07:11:40;94078.44;;;11.78;66.48
15007;BME280;7599;50.748;13.142;2023-04-01T07:14:43;94080.03;;;11.79;66.32
15007;BME280;7599;50.748;13.142;2023-04-01T07:17:52;94080.81;;;11.80;66.24
15007;BME280;7599;50.748;13.142;2023-04-01T07:20:56;94069.75;;;11.78;66.62
15007;BME280;7599;50.748;13.142;2023-04-01T07:24:04;94081.88;;;11.79;66.37
15007;BME280;7599;50.748;13.142;2023-04-01T07:27:10;94081.59;;;11.80;66.70
15007;BME280;7599;50.748;13.142;2023-04-01T07:30:15;94080.81;;;11.80;66.65
15007;BME280;7599;50.748;13.142;2023-04-01T07:33:23;94084.50;;;11.79;66.60
15007;BME280;7599;50.748;13.142;2023-04-01T07:36:37;94082.38;;;11.81;66.55
15007;BME280;7599;50.748;13.142;2023-04-01T07:39:48;94097.41;;;11.80;66.41
15007;BME280;7599;50.748;13.142;2023-04-01T07:43:07;94096.63;;;11.80;66.74
15007;BME280;7599;50.748;13.142;2023-04-01T07:46:23;94098.47;;;11.79;66.70
15007;BME280;7599;50.748;13.142;2023-04-01T07:49:40;94101.88;;;11.80;66.73
15007;BME280;7599;50.748;13.142;2023-04-01T07:52:51;94101.63;;;11.81;66.58
15007;BME280;7599;50.748;13.142;2023-04-01T07:56:00;94103.72;;;11.79;66.65
15007;BME280;7599;50.748;13.142;2023-04-01T07:59:09;94104.53;;;11.80;66.07
15007;BME280;7599;50.748;13.142;2023-04-01T08:02:33;94113.22;;;11.80;66.58
15007;BME280;7599;50.748;13.142;2023-04-01T08:05:54;94113.22;;;11.80;66.65
15007;BME280;7599;50.748;13.142;2023-04-01T08:09:05;94115.84;;;11.80;66.61
15007;BME280;7599;50.748;13.142;2023-04-01T08:12:20;94107.94;;;11.80;66.66
15007;BME280;7599;50.748;13.142;2023-04-01T08:15:27;94112.16;;;11.81;66.32
15007;BME280;7599;50.748;13.142;2023-04-01T08:18:38;94113.22;;;11.80;66.74
15007;BME280;7599;50.748;13.142;2023-04-01T08:21:47;94114.00;;;11.81;66.41
15007;BME280;7599;50.748;13.142;2023-04-01T08:24:54;94114.78;;;11.81;66.41
15007;BME280;7599;50.748;13.142;2023-04-01T08:28:03;94120.34;;;11.80;66.81
15007;BME280;7599;50.748;13.142;2023-04-01T08:31:16;94120.34;;;11.80;66.81
15007;BME280;7599;50.748;13.142;2023-04-01T08:34:25;94124.53;;;11.81;66.81
15007;BME280;7599;50.748;13.142;2023-04-01T08:37:35;94121.13;;;11.80;66.51
15007;BME280;7599;50.748;13.142;2023-04-01T08:40:55;94126.38;;;11.80;66.55
15007;BME280;7599;50.748;13.142;2023-04-01T08:44:15;94127.44;;;11.79;66.61
15007;BME280;7599;50.748;13.142;2023-04-01T08:47:39;94124.81;;;11.79;66.71
15007;BME280;7599;50.748;13.142;2023-04-01T08:54:45;94122.19;;;11.79;66.75
15007;BME280;7599;50.748;13.142;2023-04-01T08:57:57;94120.34;;;11.80;66.75
15007;BME280;7599;50.748;13.142;2023-04-01T09:01:13;94125.59;;;11.80;66.41
15007;BME280;7599;50.748;13.142;2023-04-01T09:04:25;94124.53;;;11.81;66.85
15007;BME280;7599;50.748;13.142;2023-04-01T09:07:40;94122.44;;;11.83;66.70
15007;BME280;7599;50.748;13.142;2023-04-01T09:11:01;94126.13;;;11.82;66.91
15007;BME280;7599;50.748;13.142;2023-04-01T09:14:19;94126.13;;;11.82;66.89
15007;BME280;7599;50.748;13.142;2023-04-01T09:17:50;94129.81;;;11.81;66.97
15007;BME280;7599;50.748;13.142;2023-04-01T09:21:08;94124.53;;;11.81;66.74
15007;BME280;7599;50.748;13.142;2023-04-01T09:24:30;94129.81;;;11.81;66.78
15007;BME280;7599;50.748;13.142;2023-04-01T09:27:44;94136.94;;;11.80;66.97
15007;BME280;7599;50.748;13.142;2023-04-01T09:31:11;94138.78;;;11.80;66.95
15007;BME280;7599;50.748;13.142;2023-04-01T09:34:52;94137.97;;;11.79;66.95
15007;BME280;7599;50.748;13.142;2023-04-01T09:38:06;94139.56;;;11.80;66.92
15007;BME280;7599;50.748;13.142;2023-04-01T09:41:24;94137.97;;;11.79;67.37
15007;BME280;7599;50.748;13.142;2023-04-01T09:44:33;94145.63;;;11.81;66.99
15007;BME280;7599;50.748;13.142;2023-04-01T09:47:45;94141.41;;;11.80;66.97
15007;BME280;7599;50.748;13.142;2023-04-01T09:51:01;94143.25;;;11.79;67.08
15007;BME280;7599;50.748;13.142;2023-04-01T09:54:18;94144.03;;;11.80;66.86
15007;BME280;7599;50.748;13.142;2023-04-01T09:57:43;94150.09;;;11.80;67.13
15007;BME280;7599;50.748;13.142;2023-04-01T10:01:03;94154.56;;;11.80;66.88
15007;BME280;7599;50.748;13.142;2023-04-01T10:04:28;94151.16;;;11.79;67.21
15007;BME280;7599;50.748;13.142;2023-04-01T10:07:51;94152.72;;;11.80;66.94
15007;BME280;7599;50.748;13.142;2023-04-01T10:14:48;94149.31;;;11.80;67.40
15007;BME280;7599;50.748;13.142;2023-04-01T10:18:15;94165.13;;;11.80;66.81
15007;BME280;7599;50.748;13.142;2023-04-01T10:21:59;94164.31;;;11.79;67.15
15007;BME280;7599;50.748;13.142;2023-04-01T10:25:19;94166.69;;;11.81;67.14
15007;BME280;7599;50.748;13.142;2023-04-01T10:36:13;94173.03;;;11.80;66.93
15007;BME280;7599;50.748;13.142;2023-04-01T10:39:38;94152.72;;;11.80;67.27
15007;BME280;7599;50.748;13.142;2023-04-01T10:50:25;94162.22;;;11.81;67.24
15007;BME280;7599;50.748;13.142;2023-04-01T10:53:40;94155.09;;;11.82;66.98
15007;BME280;7599;50.748;13.142;2023-04-01T10:56:51;94154.31;;;11.81;67.41
15007;BME280;7599;50.748;13.142;2023-04-01T11:00:11;94152.47;;;11.82;67.21
15007;BME280;7599;50.748;13.142;2023-04-01T11:03:46;94157.72;;;11.82;66.84
15007;BME280;7599;50.748;13.142;2023-04-01T11:11:31;94160.38;;;11.82;67.42
15007;BME280;7599;50.748;13.142;2023-04-01T11:15:01;94164.84;;;11.81;67.32
15007;BME280;7599;50.748;13.142;2023-04-01T11:18:31;94157.72;;;11.82;67.16
15007;BME280;7599;50.748;13.142;2023-04-01T11:21:56;94159.31;;;11.83;66.98
15007;BME280;7599;50.748;13.142;2023-04-01T11:25:11;94158.25;;;11.84;67.21
15007;BME280;7599;50.748;13.142;2023-04-01T11:28:42;94159.31;;;11.83;67.03
15007;BME280;7599;50.748;13.142;2023-04-01T11:31:55;94162.72;;;11.83;66.94
15007;BME280;7599;50.748;13.142;2023-04-01T11:35:22;94174.06;;;11.84;67.10
15007;BME280;7599;50.748;13.142;2023-04-01T11:39:01;94174.84;;;11.84;67.53
15007;BME280;7599;50.748;13.142;2023-04-01T11:42:19;94173.28;;;11.83;67.42
15007;BME280;7599;50.748;13.142;2023-04-01T11:45:35;94174.06;;;11.84;67.02
15007;BME280;7599;50.748;13.142;2023-04-01T11:48:48;94180.13;;;11.84;67.32
15007;BME280;7599;50.748;13.142;2023-04-01T11:52:04;94177.75;;;11.83;67.20
15007;BME280;7599;50.748;13.142;2023-04-01T11:55:24;94171.44;;;11.84;67.14
15007;BME280;7599;50.748;13.142;2023-04-01T11:58:55;94174.06;;;11.84;67.41
15007;BME280;7599;50.748;13.142;2023-04-01T12:02:08;94173.00;;;11.85;67.28
15007;BME280;7599;50.748;13.142;2023-04-01T12:05:23;94177.47;;;11.84;67.31
15007;BME280;7599;50.748;13.142;2023-04-01T12:08:38;94176.69;;;11.84;67.01
15007;BME280;7599;50.748;13.142;2023-04-01T12:11:53;94169.59;;;11.84;67.01
15007;BME280;7599;50.748;13.142;2023-04-01T12:15:13;94179.03;;;11.85;67.30
15007;BME280;7599;50.748;13.142;2023-04-01T12:18:23;94178.28;;;11.85;66.98
15007;BME280;7599;50.748;13.142;2023-04-01T12:21:36;94173.75;;;11.85;67.00
15007;BME280;7599;50.748;13.142;2023-04-01T12:24:46;94171.91;;;11.86;66.82
15007;BME280;7599;50.748;13.142;2023-04-01T12:27:58;94177.19;;;11.86;67.25
15007;BME280;7599;50.748;13.142;2023-04-01T12:31:17;94165.84;;;11.85;66.97
15007;BME280;7599;50.748;13.142;2023-04-01T12:34:33;94171.91;;;11.86;67.11
15007;BME280;7599;50.748;13.142;2023-04-01T12:37:46;94168.50;;;11.85;67.09
15007;BME280;7599;50.748;13.142;2023-04-01T12:41:08;94173.75;;;11.85;67.32
15007;BME280;7599;50.748;13.142;2023-04-01T12:44:33;94175.63;;;11.85;67.41
15007;BME280;7599;50.748;13.142;2023-04-01T12:48:06;94172.72;;;11.86;67.18
15007;BME280;7599;50.748;13.142;2023-04-01T12:51:22;94178.75;;;11.87;67.00
15007;BME280;7599;50.748;13.142;2023-04-01T13:02:01;94183.25;;;11.86;67.16
15007;BME280;7599;50.748;13.142;2023-04-01T13:05:33;94179.81;;;11.86;67.29
15007;BME280;7599;50.748;13.142;2023-04-01T13:08:46;94183.53;;;11.85;67.16
15007;BME280;7599;50.748;13.142;2023-04-01T13:12:17;94185.88;;;11.86;67.12
15007;BME280;7599;50.748;13.142;2023-04-01T13:15:26;94187.72;;;11.86;67.07
15007;BME280;7599;50.748;13.142;2023-04-01T13:18:38;94191.94;;;11.87;67.61
15007;BME280;7599;50.748;13.142;2023-04-01T13:21:50;94194.56;;;11.87;67.34
15007;BME280;7599;50.748;13.142;2023-04-01T13:25:01;94198.25;;;11.86;67.37
15007;BME280;7599;50.748;13.142;2023-04-01T13:28:14;94189.56;;;11.85;67.52
15007;BME280;7599;50.748;13.142;2023-04-01T13:31:29;94199.84;;;11.87;67.44
15007;BME280;7599;50.748;13.142;2023-04-01T13:34:48;94199.06;;;11.86;67.41
15007;BME280;7599;50.748;13.142;2023-04-01T13:38:08;94197.22;;;11.87;67.42
15007;BME280;7599;50.748;13.142;2023-04-01T13:41:23;94200.91;;;11.86;67.50
15007;BME280;7599;50.748;13.142;2023-04-01T13:44:31;94205.91;;;11.87;67.30
15007;BME280;7599;50.748;13.142;2023-04-01T13:51:42;94205.13;;;11.87;67.21
15007;BME280;7599;50.748;13.142;2023-04-01T13:55:11;94208.53;;;11.87;67.54
15007;BME280;7599;50.748;13.142;2023-04-01T13:58:41;94212.75;;;11.88;67.86
15007;BME280;7599;50.748;13.142;2023-04-01T14:01:53;94208.28;;;11.89;67.73
15007;BME280;7599;50.748;13.142;2023-04-01T14:05:15;94213.53;;;11.89;67.55
15007;BME280;7599;50.748;13.142;2023-04-01T14:08:55;94216.16;;;11.89;67.40
15007;BME280;7599;50.748;13.142;2023-04-01T14:12:04;94212.75;;;11.88;67.76
15007;BME280;7599;50.748;13.142;2023-04-01T14:15:25;94221.44;;;11.89;67.74
15007;BME280;7599;50.748;13.142;2023-04-01T14:18:39;94214.59;;;11.88;67.64
15007;BME280;7599;50.748;13.142;2023-04-01T14:21:50;94220.66;;;11.88;67.41
15007;BME280;7599;50.748;13.142;2023-04-01T14:25:20;94222.50;;;11.88;67.56
15007;BME280;7599;50.748;13.142;2023-04-01T14:28:30;94225.13;;;11.88;67.57
15007;BME280;7599;50.748;13.142;2023-04-01T14:31:43;94219.59;;;11.89;67.53
15007;BME280;7599;50.748;13.142;2023-04-01T14:35:01;94220.66;;;11.88;67.89
15007;BME280;7599;50.748;13.142;2023-04-01T14:38:35;94221.44;;;11.89;67.86
15007;BME280;7599;50.748;13.142;2023-04-01T14:41:47;94230.13;;;11.89;67.73
15007;BME280;7599;50.748;13.142;2023-04-01T14:45:25;94238.03;;;11.89;67.55
15007;BME280;7599;50.748;13.142;2023-04-01T14:48:39;94244.09;;;11.90;67.53
15007;BME280;7599;50.748;13.142;2023-04-01T14:51:52;94242.53;;;11.89;67.86
15007;BME280;7599;50.748;13.142;2023-04-01T14:54:57;94244.88;;;11.90;67.70
15007;BME280;7599;50.748;13.142;2023-04-01T14:58:09;94236.19;;;11.90;67.65
15007;BME280;7599;50.748;13.142;2023-04-01T15:01:25;94245.69;;;11.91;67.50
15007;BME280;7599;50.748;13.142;2023-04-01T15:04:46;94235.13;;;11.91;67.75
15007;BME280;7599;50.748;13.142;2023-04-01T15:08:01;94242.00;;;11.92;67.83
15007;BME280;7599;50.748;13.142;2023-04-01T15:11:29;94237.50;;;11.92;67.60
15007;BME280;7599;50.748;13.142;2023-04-01T15:14:42;94244.34;;;11.93;67.83
15007;BME280;7599;50.748;13.142;2023-04-01T15:17:58;94241.72;;;11.93;67.78
15007;BME280;7599;50.748;13.142;2023-04-01T15:21:16;94240.94;;;11.93;67.85
15007;BME280;7599;50.748;13.142;2023-04-01T15:24:22;94248.53;;;11.99;68.62
15007;BME280;7599;50.748;13.142;2023-04-01T15:27:35;94246.16;;;12.03;68.54
15007;BME280;7599;50.748;13.142;2023-04-01T15:30:50;94248.00;;;12.03;68.03
15007;BME280;7599;50.748;13.142;2023-04-01T15:34:07;94244.84;;;12.00;68.02
15007;BME280;7599;50.748;13.142;2023-04-01T15:37:21;94250.38;;;11.99;68.02
15007;BME280;7599;50.748;13.142;2023-04-01T15:40:38;94252.22;;;11.98;67.65
15007;BME280;7599;50.748;13.142;2023-04-01T15:43:47;94253.28;;;11.97;67.79
15007;BME280;7599;50.748;13.142;2023-04-01T15:46:51;94260.13;;;11.98;67.62
15007;BME280;7599;50.748;13.142;2023-04-01T15:49:57;94257.75;;;11.97;67.82
15007;BME280;7599;50.748;13.142;2023-04-01T15:53:18;94266.75;;;11.96;67.94
15007;BME280;7599;50.748;13.142;2023-04-01T15:56:29;94265.66;;;11.97;67.89
15007;BME280;7599;50.748;13.142;2023-04-01T16:00:27;94273.56;;;11.97;67.80
15007;BME280;7599;50.748;13.142;2023-04-01T16:03:38;94273.06;;;11.95;68.00
15007;BME280;7599;50.748;13.142;2023-04-01T16:06:58;94270.44;;;11.95;67.97
15007;BME280;7599;50.748;13.142;2023-04-01T16:14:01;94267.03;;;11.94;68.10
15007;BME280;7599;50.748;13.142;2023-04-01T16:17:27;94275.72;;;11.95;67.88
15007;BME280;7599;50.748;13.142;2023-04-01T16:20:44;94275.97;;;11.93;68.09
15007;BME280;7599;50.748;13.142;2023-04-01T16:23:53;94286.25;;;11.95;68.08
15007;BME280;7599;50.748;13.142;2023-04-01T16:27:04;94288.88;;;11.95;68.13
15007;BME280;7599;50.748;13.142;2023-04-01T16:30:26;94289.94;;;11.94;67.83
15007;BME280;7599;50.748;13.142;2023-04-01T16:33:43;94290.47;;;11.96;67.83
15007;BME280;7599;50.748;13.142;2023-04-01T16:36:51;94292.59;;;11.94;67.87
15007;BME280;7599;50.748;13.142;2023-04-01T16:40:09;94306.53;;;11.94;68.17
15007;BME280;7599;50.748;13.142;2023-04-01T16:43:20;94303.91;;;11.94;67.80
15007;BME280;7599;50.748;13.142;2023-04-01T16:46:38;94304.97;;;11.93;67.84
15007;BME280;7599;50.748;13.142;2023-04-01T16:49:46;94311.81;;;11.94;68.01
15007;BME280;7599;50.748;13.142;2023-04-01T16:52:59;94312.09;;;11.93;67.94
15007;BME280;7599;50.748;13.142;2023-04-01T16:56:08;94315.50;;;11.93;68.08
15007;BME280;7599;50.748;13.142;2023-04-01T16:59:19;94317.09;;;11.94;68.17
15007;BME280;7599;50.748;13.142;2023-04-01T17:02:28;94318.16;;;11.93;67.90
15007;BME280;7599;50.748;13.142;2023-04-01T17:05:56;94323.41;;;11.93;68.18
15007;BME280;7599;50.748;13.142;2023-04-01T17:09:07;94337.38;;;11.94;68.04
15007;BME280;7599;50.748;13.142;2023-04-01T17:12:17;94333.97;;;11.93;68.02
15007;BME280;7599;50.748;13.142;2023-04-01T17:15:30;94337.38;;;11.94;68.28
15007;BME280;7599;50.748;13.142;2023-04-01T17:18:41;94350.56;;;11.94;68.13
15007;BME280;7599;50.748;13.142;2023-04-01T17:21:56;94347.91;;;11.94;68.39
15007;BME280;7599;50.748;13.142;2023-04-01T17:25:20;94345.28;;;11.94;67.94
15007;BME280;7599;50.748;13.142;2023-04-01T17:28:35;94353.72;;;11.96;68.30
15007;BME280;7599;50.748;13.142;2023-04-01T17:31:46;94357.41;;;11.95;67.89
15007;BME280;7599;50.748;13.142;2023-04-01T17:34:58;94357.41;;;11.95;68.24
15007;BME280;7599;50.748;13.142;2023-04-01T17:38:14;94354.78;;;11.95;68.23
15007;BME280;7599;50.748;13.142;2023-04-01T17:41:30;94360.03;;;11.95;68.10
15007;BME280;7599;50.748;13.142;2023-04-01T17:44:47;94367.94;;;11.95;68.02